sensor_id;sensor_type;location;lat;lon;timestamp;P1;durP1;ratioP1;P2;durP2;ratioP2
8159;SDS011;27404;52.398;9.646;2022-11-06T00:00:25;4.37;;;2.37;;
8159;SDS011;27404;52.398;9.646;2022-11-06T00:02:50;4.60;;;2.40;;
8159;SDS011;27404;52.398;9.646;2022-11-06T00:05:16;5.80;;;2.30;;
8159;SDS011;27404;52.398;9.646;2022-11-06T00:08:00;3.40;;;1.97;;
8159;SDS011;27404;52.398;9.646;2022-11-06T00:10:25;5.83;;;2.50;;
8159;SDS011;27404;52.398;9.646;2022-11-06T00:12:51;2.97;;;2.00;;
8159;SDS011;27404;52.398;9.646;2022-11-06T00:15:16;6.67;;;2.60;;
8159;SDS011;27404;52.398;9.646;2022-11-06T00:17:42;4.53;;;2.37;;
8159;SDS011;27404;52.398;9.646;2022-11-06T00:20:08;6.17;;;2.20;;
8159;SDS011;27404;52.398;9.646;2022-11-06T00:22:34;4.97;;;2.67;;
8159;SDS011;27404;52.398;9.646;2022-11-06T00:25:01;5.63;;;2.47;;
8159;SDS011;27404;52.398;9.646;2022-11-06T00:27:27;6.77;;;2.33;;
8159;SDS011;27404;52.398;9.646;2022-11-06T00:29:53;6.47;;;2.80;;
8159;SDS011;27404;52.398;9.646;2022-11-06T00:32:19;4.30;;;2.27;;
8159;SDS011;27404;52.398;9.646;2022-11-06T00:34:45;5.17;;;2.77;;
8159;SDS011;27404;52.398;9.646;2022-11-06T00:37:11;4.87;;;2.20;;
8159;SDS011;27404;52.398;9.646;2022-11-06T00:39:37;4.77;;;2.37;;
8159;SDS011;27404;52.398;9.646;2022-11-06T00:42:02;6.83;;;2.60;;
8159;SDS011;27404;52.398;9.646;2022-11-06T00:44:28;4.27;;;2.90;;
8159;SDS011;27404;52.398;9.646;2022-11-06T00:46:53;3.97;;;2.30;;
8159;SDS011;27404;52.398;9.646;2022-11-06T00:49:19;7.63;;;2.20;;
8159;SDS011;27404;52.398;9.646;2022-11-06T00:51:44;4.80;;;2.60;;
8159;SDS011;27404;52.398;9.646;2022-11-06T00:54:10;5.10;;;2.63;;
8159;SDS011;27404;52.398;9.646;2022-11-06T00:56:37;3.47;;;2.10;;
8159;SDS011;27404;52.398;9.646;2022-11-06T00:59:03;5.03;;;2.17;;
8159;SDS011;27404;52.398;9.646;2022-11-06T01:01:31;6.83;;;2.50;;
8159;SDS011;27404;52.398;9.646;2022-11-06T01:04:17;7.30;;;2.77;;
8159;SDS011;27404;52.398;9.646;2022-11-06T01:06:45;5.87;;;2.60;;
8159;SDS011;27404;52.398;9.646;2022-11-06T01:09:13;5.07;;;2.60;;
8159;SDS011;27404;52.398;9.646;2022-11-06T01:11:43;4.03;;;2.50;;
8159;SDS011;27404;52.398;9.646;2022-11-06T01:14:11;3.57;;;2.43;;
8159;SDS011;27404;52.398;9.646;2022-11-06T01:16:38;8.30;;;3.13;;
8159;SDS011;27404;52.398;9.646;2022-11-06T01:19:04;4.60;;;2.83;;
8159;SDS011;27404;52.398;9.646;2022-11-06T01:21:31;7.90;;;2.53;;
8159;SDS011;27404;52.398;9.646;2022-11-06T01:24:09;6.40;;;2.63;;
8159;SDS011;27404;52.398;9.646;2022-11-06T01:26:37;9.13;;;3.10;;
8159;SDS011;27404;52.398;9.646;2022-11-06T01:29:03;5.60;;;2.70;;
8159;SDS011;27404;52.398;9.646;2022-11-06T01:31:30;4.83;;;2.57;;
8159;SDS011;27404;52.398;9.646;2022-11-06T01:33:58;4.17;;;2.33;;
8159;SDS011;27404;52.398;9.646;2022-11-06T01:36:24;4.63;;;2.53;;
8159;SDS011;27404;52.398;9.646;2022-11-06T01:38:53;5.87;;;2.23;;
8159;SDS011;27404;52.398;9.646;2022-11-06T01:41:24;7.13;;;2.87;;
8159;SDS011;27404;52.398;9.646;2022-11-06T01:43:55;8.03;;;2.70;;
8159;SDS011;27404;52.398;9.646;2022-11-06T01:46:29;4.90;;;2.80;;
8159;SDS011;27404;52.398;9.646;2022-11-06T01:49:00;8.53;;;3.23;;
8159;SDS011;27404;52.398;9.646;2022-11-06T01:51:41;6.57;;;2.77;;
8159;SDS011;27404;52.398;9.646;2022-11-06T01:54:10;4.23;;;2.13;;
8159;SDS011;27404;52.398;9.646;2022-11-06T01:56:37;5.10;;;2.90;;
8159;SDS011;27404;52.398;9.646;2022-11-06T01:59:04;5.07;;;3.13;;
8159;SDS011;27404;52.398;9.646;2022-11-06T02:01:32;6.90;;;2.90;;
8159;SDS011;27404;52.398;9.646;2022-11-06T02:03:59;4.20;;;2.80;;
8159;SDS011;27404;52.398;9.646;2022-11-06T02:06:38;4.13;;;2.60;;
8159;SDS011;27404;52.398;9.646;2022-11-06T02:09:04;6.57;;;3.30;;
8159;SDS011;27404;52.398;9.646;2022-11-06T02:11:40;7.37;;;3.13;;
8159;SDS011;27404;52.398;9.646;2022-11-06T02:14:18;5.97;;;3.00;;
8159;SDS011;27404;52.398;9.646;2022-11-06T02:16:54;4.10;;;2.60;;
8159;SDS011;27404;52.398;9.646;2022-11-06T02:27:35;5.83;;;2.80;;
8159;SDS011;27404;52.398;9.646;2022-11-06T02:32:37;5.37;;;3.10;;
8159;SDS011;27404;52.398;9.646;2022-11-06T02:38:00;6.17;;;2.80;;
8159;SDS011;27404;52.398;9.646;2022-11-06T02:40:37;6.20;;;3.20;;
8159;SDS011;27404;52.398;9.646;2022-11-06T02:43:08;5.73;;;3.10;;
8159;SDS011;27404;52.398;9.646;2022-11-06T02:45:38;6.13;;;3.43;;
8159;SDS011;27404;52.398;9.646;2022-11-06T02:48:10;7.67;;;3.40;;
8159;SDS011;27404;52.398;9.646;2022-11-06T02:50:41;10.67;;;4.00;;
8159;SDS011;27404;52.398;9.646;2022-11-06T02:53:10;8.03;;;3.63;;
8159;SDS011;27404;52.398;9.646;2022-11-06T02:55:52;5.17;;;3.37;;
8159;SDS011;27404;52.398;9.646;2022-11-06T02:58:23;5.53;;;3.30;;
8159;SDS011;27404;52.398;9.646;2022-11-06T03:01:05;6.00;;;3.70;;
8159;SDS011;27404;52.398;9.646;2022-11-06T03:03:38;6.57;;;3.80;;
8159;SDS011;27404;52.398;9.646;2022-11-06T03:06:10;6.97;;;3.93;;
8159;SDS011;27404;52.398;9.646;2022-11-06T03:11:24;4.90;;;3.57;;
8159;SDS011;27404;52.398;9.646;2022-11-06T03:27:31;6.93;;;4.10;;
8159;SDS011;27404;52.398;9.646;2022-11-06T03:30:03;8.70;;;4.00;;
8159;SDS011;27404;52.398;9.646;2022-11-06T03:32:32;9.50;;;3.97;;
8159;SDS011;27404;52.398;9.646;2022-11-06T03:40:34;9.43;;;4.27;;
8159;SDS011;27404;52.398;9.646;2022-11-06T03:43:04;8.17;;;4.47;;
8159;SDS011;27404;52.398;9.646;2022-11-06T03:45:32;9.10;;;4.27;;
8159;SDS011;27404;52.398;9.646;2022-11-06T03:50:35;8.67;;;4.20;;
8159;SDS011;27404;52.398;9.646;2022-11-06T03:53:06;7.77;;;4.50;;
8159;SDS011;27404;52.398;9.646;2022-11-06T03:55:44;6.87;;;3.70;;
8159;SDS011;27404;52.398;9.646;2022-11-06T03:58:16;5.87;;;3.87;;
8159;SDS011;27404;52.398;9.646;2022-11-06T04:00:45;6.00;;;3.70;;
8159;SDS011;27404;52.398;9.646;2022-11-06T04:03:26;4.73;;;3.70;;
8159;SDS011;27404;52.398;9.646;2022-11-06T04:06:01;6.80;;;3.67;;
8159;SDS011;27404;52.398;9.646;2022-11-06T04:08:29;5.40;;;4.00;;
8159;SDS011;27404;52.398;9.646;2022-11-06T04:11:17;6.60;;;4.00;;
8159;SDS011;27404;52.398;9.646;2022-11-06T04:14:04;8.00;;;3.60;;
8159;SDS011;27404;52.398;9.646;2022-11-06T04:16:35;9.47;;;3.90;;
8159;SDS011;27404;52.398;9.646;2022-11-06T04:19:13;6.93;;;3.80;;
8159;SDS011;27404;52.398;9.646;2022-11-06T04:27:44;5.60;;;3.50;;
8159;SDS011;27404;52.398;9.646;2022-11-06T04:30:18;5.60;;;3.57;;
8159;SDS011;27404;52.398;9.646;2022-11-06T04:38:32;10.73;;;3.23;;
8159;SDS011;27404;52.398;9.646;2022-11-06T04:41:10;4.00;;;3.07;;
8159;SDS011;27404;52.398;9.646;2022-11-06T04:43:41;5.07;;;3.13;;
8159;SDS011;27404;52.398;9.646;2022-11-06T04:46:12;6.03;;;2.93;;
8159;SDS011;27404;52.398;9.646;2022-11-06T04:48:44;7.80;;;2.97;;
8159;SDS011;27404;52.398;9.646;2022-11-06T04:51:11;6.83;;;3.33;;
8159;SDS011;27404;52.398;9.646;2022-11-06T04:53:38;8.17;;;2.90;;
8159;SDS011;27404;52.398;9.646;2022-11-06T04:56:11;4.47;;;2.80;;
8159;SDS011;27404;52.398;9.646;2022-11-06T04:58:44;5.13;;;3.00;;
8159;SDS011;27404;52.398;9.646;2022-11-06T05:01:10;4.97;;;2.50;;
8159;SDS011;27404;52.398;9.646;2022-11-06T05:03:35;10.90;;;2.90;;
8159;SDS011;27404;52.398;9.646;2022-11-06T05:06:01;5.60;;;2.70;;
8159;SDS011;27404;52.398;9.646;2022-11-06T05:08:26;5.27;;;2.60;;
8159;SDS011;27404;52.398;9.646;2022-11-06T05:10:52;5.37;;;2.70;;
8159;SDS011;27404;52.398;9.646;2022-11-06T05:13:17;7.67;;;2.97;;
8159;SDS011;27404;52.398;9.646;2022-11-06T05:15:45;7.23;;;2.80;;
8159;SDS011;27404;52.398;9.646;2022-11-06T05:18:11;5.37;;;2.77;;
8159;SDS011;27404;52.398;9.646;2022-11-06T05:20:36;3.80;;;2.40;;
8159;SDS011;27404;52.398;9.646;2022-11-06T05:23:02;8.40;;;2.77;;
8159;SDS011;27404;52.398;9.646;2022-11-06T05:25:29;5.90;;;2.67;;
8159;SDS011;27404;52.398;9.646;2022-11-06T05:28:00;4.50;;;2.83;;
8159;SDS011;27404;52.398;9.646;2022-11-06T05:30:26;6.77;;;2.67;;
8159;SDS011;27404;52.398;9.646;2022-11-06T05:32:52;5.07;;;2.50;;
8159;SDS011;27404;52.398;9.646;2022-11-06T05:35:18;7.30;;;3.53;;
8159;SDS011;27404;52.398;9.646;2022-11-06T05:37:45;4.03;;;2.97;;
8159;SDS011;27404;52.398;9.646;2022-11-06T05:40:11;5.23;;;3.07;;
8159;SDS011;27404;52.398;9.646;2022-11-06T05:42:37;7.70;;;2.57;;
8159;SDS011;27404;52.398;9.646;2022-11-06T05:45:04;4.80;;;2.53;;
8159;SDS011;27404;52.398;9.646;2022-11-06T05:47:30;6.60;;;2.77;;
8159;SDS011;27404;52.398;9.646;2022-11-06T05:49:55;7.67;;;2.57;;
8159;SDS011;27404;52.398;9.646;2022-11-06T05:52:21;6.40;;;2.83;;
8159;SDS011;27404;52.398;9.646;2022-11-06T05:54:46;8.37;;;2.97;;
8159;SDS011;27404;52.398;9.646;2022-11-06T05:57:12;5.33;;;2.50;;
8159;SDS011;27404;52.398;9.646;2022-11-06T05:59:37;5.40;;;2.53;;
8159;SDS011;27404;52.398;9.646;2022-11-06T06:02:03;5.20;;;2.90;;
8159;SDS011;27404;52.398;9.646;2022-11-06T06:04:28;8.33;;;2.90;;
8159;SDS011;27404;52.398;9.646;2022-11-06T06:06:53;5.07;;;2.53;;
8159;SDS011;27404;52.398;9.646;2022-11-06T06:09:19;8.83;;;3.03;;
8159;SDS011;27404;52.398;9.646;2022-11-06T06:11:44;5.80;;;2.83;;
8159;SDS011;27404;52.398;9.646;2022-11-06T06:14:10;5.63;;;2.90;;
8159;SDS011;27404;52.398;9.646;2022-11-06T06:16:35;7.63;;;2.57;;
8159;SDS011;27404;52.398;9.646;2022-11-06T06:19:01;8.83;;;2.80;;
8159;SDS011;27404;52.398;9.646;2022-11-06T06:21:26;8.33;;;4.00;;
8159;SDS011;27404;52.398;9.646;2022-11-06T06:23:52;4.53;;;2.60;;
8159;SDS011;27404;52.398;9.646;2022-11-06T06:26:17;7.17;;;3.40;;
8159;SDS011;27404;52.398;9.646;2022-11-06T06:28:43;4.37;;;2.60;;
8159;SDS011;27404;52.398;9.646;2022-11-06T06:31:08;6.73;;;2.60;;
8159;SDS011;27404;52.398;9.646;2022-11-06T06:33:34;5.50;;;2.43;;
8159;SDS011;27404;52.398;9.646;2022-11-06T06:36:03;6.20;;;2.83;;
8159;SDS011;27404;52.398;9.646;2022-11-06T06:38:29;4.23;;;2.77;;
8159;SDS011;27404;52.398;9.646;2022-11-06T06:40:58;9.10;;;2.93;;
8159;SDS011;27404;52.398;9.646;2022-11-06T06:43:28;5.27;;;2.67;;
8159;SDS011;27404;52.398;9.646;2022-11-06T06:45:56;5.03;;;2.60;;
8159;SDS011;27404;52.398;9.646;2022-11-06T06:48:23;5.37;;;2.70;;
8159;SDS011;27404;52.398;9.646;2022-11-06T06:50:48;6.20;;;2.80;;
8159;SDS011;27404;52.398;9.646;2022-11-06T06:53:13;9.27;;;3.03;;
8159;SDS011;27404;52.398;9.646;2022-11-06T06:55:39;5.83;;;2.70;;
8159;SDS011;27404;52.398;9.646;2022-11-06T06:58:06;5.70;;;3.17;;
8159;SDS011;27404;52.398;9.646;2022-11-06T07:00:32;7.27;;;3.50;;
8159;SDS011;27404;52.398;9.646;2022-11-06T07:02:57;7.93;;;3.60;;
8159;SDS011;27404;52.398;9.646;2022-11-06T07:05:23;6.30;;;2.97;;
8159;SDS011;27404;52.398;9.646;2022-11-06T07:07:49;5.83;;;3.20;;
8159;SDS011;27404;52.398;9.646;2022-11-06T07:10:14;8.07;;;3.30;;
8159;SDS011;27404;52.398;9.646;2022-11-06T07:12:40;7.17;;;3.20;;
8159;SDS011;27404;52.398;9.646;2022-11-06T07:15:06;7.47;;;3.40;;
8159;SDS011;27404;52.398;9.646;2022-11-06T07:17:32;8.43;;;3.60;;
8159;SDS011;27404;52.398;9.646;2022-11-06T07:19:57;7.60;;;3.37;;
8159;SDS011;27404;52.398;9.646;2022-11-06T07:22:26;6.67;;;3.27;;
8159;SDS011;27404;52.398;9.646;2022-11-06T07:24:52;6.70;;;3.40;;
8159;SDS011;27404;52.398;9.646;2022-11-06T07:27:17;6.33;;;3.07;;
8159;SDS011;27404;52.398;9.646;2022-11-06T07:29:43;7.47;;;3.80;;
8159;SDS011;27404;52.398;9.646;2022-11-06T07:32:08;5.50;;;3.10;;
8159;SDS011;27404;52.398;9.646;2022-11-06T07:34:34;6.00;;;3.27;;
8159;SDS011;27404;52.398;9.646;2022-11-06T07:37:03;6.87;;;3.30;;
8159;SDS011;27404;52.398;9.646;2022-11-06T07:39:29;6.50;;;3.30;;
8159;SDS011;27404;52.398;9.646;2022-11-06T07:41:54;6.83;;;3.20;;
8159;SDS011;27404;52.398;9.646;2022-11-06T07:44:20;6.50;;;3.30;;
8159;SDS011;27404;52.398;9.646;2022-11-06T07:46:45;7.00;;;3.23;;
8159;SDS011;27404;52.398;9.646;2022-11-06T07:49:11;8.03;;;3.40;;
8159;SDS011;27404;52.398;9.646;2022-11-06T07:51:36;6.33;;;3.30;;
8159;SDS011;27404;52.398;9.646;2022-11-06T07:54:01;8.50;;;3.80;;
8159;SDS011;27404;52.398;9.646;2022-11-06T07:56:27;8.97;;;3.43;;
8159;SDS011;27404;52.398;9.646;2022-11-06T07:58:52;7.33;;;3.10;;
8159;SDS011;27404;52.398;9.646;2022-11-06T08:01:18;6.97;;;3.60;;
8159;SDS011;27404;52.398;9.646;2022-11-06T08:03:43;5.27;;;3.20;;
8159;SDS011;27404;52.398;9.646;2022-11-06T08:06:09;5.43;;;3.33;;
8159;SDS011;27404;52.398;9.646;2022-11-06T08:08:35;7.00;;;3.40;;
8159;SDS011;27404;52.398;9.646;2022-11-06T08:11:04;8.43;;;3.60;;
8159;SDS011;27404;52.398;9.646;2022-11-06T08:13:31;4.63;;;3.00;;
8159;SDS011;27404;52.398;9.646;2022-11-06T08:16:03;9.43;;;3.50;;
8159;SDS011;27404;52.398;9.646;2022-11-06T08:18:30;7.17;;;3.50;;
8159;SDS011;27404;52.398;9.646;2022-11-06T08:20:56;6.53;;;3.63;;
8159;SDS011;27404;52.398;9.646;2022-11-06T08:23:21;7.07;;;3.33;;
8159;SDS011;27404;52.398;9.646;2022-11-06T08:25:47;8.93;;;3.10;;
8159;SDS011;27404;52.398;9.646;2022-11-06T08:28:12;5.53;;;3.00;;
8159;SDS011;27404;52.398;9.646;2022-11-06T08:30:38;4.83;;;3.20;;
8159;SDS011;27404;52.398;9.646;2022-11-06T08:33:04;8.10;;;3.43;;
8159;SDS011;27404;52.398;9.646;2022-11-06T08:35:32;6.30;;;4.30;;
8159;SDS011;27404;52.398;9.646;2022-11-06T08:37:58;6.87;;;3.30;;
8159;SDS011;27404;52.398;9.646;2022-11-06T08:40:24;6.00;;;3.10;;
8159;SDS011;27404;52.398;9.646;2022-11-06T08:42:50;6.07;;;3.17;;
8159;SDS011;27404;52.398;9.646;2022-11-06T08:45:15;5.63;;;3.20;;
8159;SDS011;27404;52.398;9.646;2022-11-06T08:47:41;6.63;;;3.30;;
8159;SDS011;27404;52.398;9.646;2022-11-06T08:50:06;6.40;;;4.10;;
8159;SDS011;27404;52.398;9.646;2022-11-06T08:52:32;8.00;;;3.10;;
8159;SDS011;27404;52.398;9.646;2022-11-06T08:54:58;6.80;;;3.17;;
8159;SDS011;27404;52.398;9.646;2022-11-06T08:57:23;6.13;;;3.20;;
8159;SDS011;27404;52.398;9.646;2022-11-06T08:59:49;4.93;;;3.10;;
8159;SDS011;27404;52.398;9.646;2022-11-06T09:02:14;7.40;;;3.20;;
8159;SDS011;27404;52.398;9.646;2022-11-06T09:04:40;4.57;;;2.80;;
8159;SDS011;27404;52.398;9.646;2022-11-06T09:07:05;5.20;;;3.10;;
8159;SDS011;27404;52.398;9.646;2022-11-06T09:09:32;6.53;;;3.40;;
8159;SDS011;27404;52.398;9.646;2022-11-06T09:11:58;3.70;;;2.77;;
8159;SDS011;27404;52.398;9.646;2022-11-06T09:14:24;6.20;;;3.07;;
8159;SDS011;27404;52.398;9.646;2022-11-06T09:16:50;5.63;;;2.43;;
8159;SDS011;27404;52.398;9.646;2022-11-06T09:19:16;4.83;;;3.07;;
8159;SDS011;27404;52.398;9.646;2022-11-06T09:21:41;5.03;;;3.10;;
8159;SDS011;27404;52.398;9.646;2022-11-06T09:24:07;5.43;;;3.20;;
8159;SDS011;27404;52.398;9.646;2022-11-06T09:26:32;3.70;;;2.70;;
8159;SDS011;27404;52.398;9.646;2022-11-06T09:28:58;5.50;;;3.47;;
8159;SDS011;27404;52.398;9.646;2022-11-06T09:31:23;5.50;;;3.03;;
8159;SDS011;27404;52.398;9.646;2022-11-06T09:33:48;7.63;;;3.03;;
8159;SDS011;27404;52.398;9.646;2022-11-06T09:36:15;5.17;;;3.07;;
8159;SDS011;27404;52.398;9.646;2022-11-06T09:38:40;6.53;;;3.07;;
8159;SDS011;27404;52.398;9.646;2022-11-06T09:41:06;6.07;;;3.20;;
8159;SDS011;27404;52.398;9.646;2022-11-06T09:43:50;5.03;;;3.17;;
8159;SDS011;27404;52.398;9.646;2022-11-06T09:46:33;5.47;;;2.67;;
8159;SDS011;27404;52.398;9.646;2022-11-06T09:52:16;5.80;;;2.50;;
8159;SDS011;27404;52.398;9.646;2022-11-06T09:54:57;6.17;;;3.10;;
8159;SDS011;27404;52.398;9.646;2022-11-06T10:00:13;6.07;;;3.03;;
8159;SDS011;27404;52.398;9.646;2022-11-06T10:02:47;7.17;;;2.80;;
8159;SDS011;27404;52.398;9.646;2022-11-06T10:07:46;3.73;;;2.70;;
8159;SDS011;27404;52.398;9.646;2022-11-06T10:10:18;3.53;;;2.50;;
8159;SDS011;27404;52.398;9.646;2022-11-06T10:15:44;7.57;;;3.00;;
8159;SDS011;27404;52.398;9.646;2022-11-06T10:18:24;3.60;;;2.43;;
8159;SDS011;27404;52.398;9.646;2022-11-06T10:31:36;5.33;;;2.83;;
8159;SDS011;27404;52.398;9.646;2022-11-06T10:36:49;5.60;;;2.60;;
8159;SDS011;27404;52.398;9.646;2022-11-06T10:39:20;7.00;;;2.80;;
8159;SDS011;27404;52.398;9.646;2022-11-06T10:41:50;4.83;;;2.27;;
8159;SDS011;27404;52.398;9.646;2022-11-06T10:49:52;3.77;;;2.40;;
8159;SDS011;27404;52.398;9.646;2022-11-06T10:57:35;3.93;;;2.20;;
8159;SDS011;27404;52.398;9.646;2022-11-06T11:00:09;3.30;;;2.10;;
8159;SDS011;27404;52.398;9.646;2022-11-06T11:02:38;3.90;;;2.20;;
8159;SDS011;27404;52.398;9.646;2022-11-06T11:05:15;7.87;;;2.50;;
8159;SDS011;27404;52.398;9.646;2022-11-06T11:07:44;3.37;;;2.17;;
8159;SDS011;27404;52.398;9.646;2022-11-06T11:10:31;3.33;;;2.23;;
8159;SDS011;27404;52.398;9.646;2022-11-06T11:12:59;5.97;;;2.10;;
8159;SDS011;27404;52.398;9.646;2022-11-06T11:15:27;3.77;;;2.13;;
8159;SDS011;27404;52.398;9.646;2022-11-06T11:18:14;4.83;;;2.10;;
8159;SDS011;27404;52.398;9.646;2022-11-06T11:20:46;4.20;;;1.90;;
8159;SDS011;27404;52.398;9.646;2022-11-06T11:23:17;4.53;;;2.10;;
8159;SDS011;27404;52.398;9.646;2022-11-06T11:25:52;5.13;;;2.17;;
8159;SDS011;27404;52.398;9.646;2022-11-06T11:28:21;3.17;;;1.90;;
8159;SDS011;27404;52.398;9.646;2022-11-06T11:30:53;5.00;;;2.30;;
8159;SDS011;27404;52.398;9.646;2022-11-06T11:33:23;5.30;;;1.97;;
8159;SDS011;27404;52.398;9.646;2022-11-06T11:35:50;5.60;;;2.20;;
8159;SDS011;27404;52.398;9.646;2022-11-06T11:38:17;5.63;;;2.00;;
8159;SDS011;27404;52.398;9.646;2022-11-06T11:40:45;5.13;;;1.80;;
8159;SDS011;27404;52.398;9.646;2022-11-06T11:43:26;3.93;;;2.40;;
8159;SDS011;27404;52.398;9.646;2022-11-06T11:48:53;3.80;;;2.13;;
8159;SDS011;27404;52.398;9.646;2022-11-06T11:51:27;4.67;;;2.27;;
8159;SDS011;27404;52.398;9.646;2022-11-06T11:56:34;3.37;;;2.00;;
8159;SDS011;27404;52.398;9.646;2022-11-06T11:59:33;3.70;;;1.73;;
8159;SDS011;27404;52.398;9.646;2022-11-06T12:02:11;3.67;;;1.90;;
8159;SDS011;27404;52.398;9.646;2022-11-06T12:04:38;2.07;;;1.50;;
8159;SDS011;27404;52.398;9.646;2022-11-06T12:07:07;3.30;;;2.07;;
8159;SDS011;27404;52.398;9.646;2022-11-06T12:09:46;4.30;;;2.20;;
8159;SDS011;27404;52.398;9.646;2022-11-06T12:12:31;4.17;;;1.70;;
8159;SDS011;27404;52.398;9.646;2022-11-06T12:15:05;3.80;;;1.73;;
8159;SDS011;27404;52.398;9.646;2022-11-06T12:17:42;3.93;;;2.00;;
8159;SDS011;27404;52.398;9.646;2022-11-06T12:20:12;4.00;;;1.70;;
8159;SDS011;27404;52.398;9.646;2022-11-06T12:22:42;4.27;;;1.87;;
8159;SDS011;27404;52.398;9.646;2022-11-06T12:25:15;4.57;;;1.80;;
8159;SDS011;27404;52.398;9.646;2022-11-06T12:27:57;5.53;;;1.70;;
8159;SDS011;27404;52.398;9.646;2022-11-06T12:30:24;4.33;;;1.67;;
8159;SDS011;27404;52.398;9.646;2022-11-06T12:32:58;3.23;;;1.83;;
8159;SDS011;27404;52.398;9.646;2022-11-06T12:40:20;6.37;;;1.80;;
8159;SDS011;27404;52.398;9.646;2022-11-06T12:45:23;4.50;;;1.80;;
8159;SDS011;27404;52.398;9.646;2022-11-06T12:48:10;2.83;;;1.73;;
8159;SDS011;27404;52.398;9.646;2022-11-06T12:50:59;4.07;;;1.70;;
8159;SDS011;27404;52.398;9.646;2022-11-06T12:53:39;3.70;;;1.80;;
8159;SDS011;27404;52.398;9.646;2022-11-06T13:10:06;5.73;;;2.60;;
8159;SDS011;27404;52.398;9.646;2022-11-06T13:16:01;3.53;;;2.00;;
8159;SDS011;27404;52.398;9.646;2022-11-06T13:18:36;3.37;;;1.70;;
8159;SDS011;27404;52.398;9.646;2022-11-06T13:29:01;3.07;;;1.70;;
8159;SDS011;27404;52.398;9.646;2022-11-06T13:31:36;6.10;;;1.90;;
8159;SDS011;27404;52.398;9.646;2022-11-06T13:34:04;4.80;;;2.10;;
8159;SDS011;27404;52.398;9.646;2022-11-06T13:36:31;3.70;;;2.07;;
8159;SDS011;27404;52.398;9.646;2022-11-06T13:41:49;5.07;;;2.00;;
8159;SDS011;27404;52.398;9.646;2022-11-06T13:44:16;3.60;;;1.57;;
8159;SDS011;27404;52.398;9.646;2022-11-06T13:46:58;5.83;;;1.70;;
8159;SDS011;27404;52.398;9.646;2022-11-06T13:49:45;2.87;;;1.63;;
8159;SDS011;27404;52.398;9.646;2022-11-06T13:52:36;3.60;;;2.00;;
8159;SDS011;27404;52.398;9.646;2022-11-06T13:55:23;5.80;;;2.03;;
8159;SDS011;27404;52.398;9.646;2022-11-06T14:06:21;2.93;;;1.60;;
8159;SDS011;27404;52.398;9.646;2022-11-06T14:11:41;4.87;;;2.10;;
8159;SDS011;27404;52.398;9.646;2022-11-06T14:16:43;4.67;;;2.20;;
8159;SDS011;27404;52.398;9.646;2022-11-06T14:19:10;3.90;;;2.20;;
8159;SDS011;27404;52.398;9.646;2022-11-06T14:26:44;4.30;;;1.50;;
8159;SDS011;27404;52.398;9.646;2022-11-06T14:32:11;5.13;;;2.50;;
8159;SDS011;27404;52.398;9.646;2022-11-06T14:34:57;4.73;;;1.80;;
8159;SDS011;27404;52.398;9.646;2022-11-06T14:40:10;3.57;;;1.93;;
8159;SDS011;27404;52.398;9.646;2022-11-06T14:42:41;4.57;;;1.70;;
8159;SDS011;27404;52.398;9.646;2022-11-06T14:45:16;4.30;;;1.80;;
8159;SDS011;27404;52.398;9.646;2022-11-06T14:52:45;4.40;;;1.30;;
8159;SDS011;27404;52.398;9.646;2022-11-06T14:55:42;2.67;;;1.67;;
8159;SDS011;27404;52.398;9.646;2022-11-06T14:58:20;3.10;;;1.40;;
8159;SDS011;27404;52.398;9.646;2022-11-06T15:00:53;2.17;;;1.37;;
8159;SDS011;27404;52.398;9.646;2022-11-06T15:03:29;3.30;;;1.10;;
8159;SDS011;27404;52.398;9.646;2022-11-06T15:16:25;4.07;;;1.60;;
8159;SDS011;27404;52.398;9.646;2022-11-06T15:19:01;2.63;;;1.67;;
8159;SDS011;27404;52.398;9.646;2022-11-06T15:21:29;6.63;;;1.50;;
8159;SDS011;27404;52.398;9.646;2022-11-06T15:24:07;3.13;;;1.50;;
8159;SDS011;27404;52.398;9.646;2022-11-06T15:26:50;4.77;;;1.53;;
8159;SDS011;27404;52.398;9.646;2022-11-06T15:29:25;5.00;;;1.60;;
8159;SDS011;27404;52.398;9.646;2022-11-06T15:34:39;4.40;;;1.43;;
8159;SDS011;27404;52.398;9.646;2022-11-06T15:37:09;4.30;;;1.67;;
8159;SDS011;27404;52.398;9.646;2022-11-06T15:39:50;3.80;;;1.80;;
8159;SDS011;27404;52.398;9.646;2022-11-06T15:42:21;3.87;;;1.70;;
8159;SDS011;27404;52.398;9.646;2022-11-06T15:44:52;3.17;;;1.67;;
8159;SDS011;27404;52.398;9.646;2022-11-06T15:47:56;7.83;;;2.37;;
8159;SDS011;27404;52.398;9.646;2022-11-06T15:50:24;4.87;;;2.00;;
8159;SDS011;27404;52.398;9.646;2022-11-06T15:52:50;5.23;;;1.90;;
8159;SDS011;27404;52.398;9.646;2022-11-06T15:55:23;3.90;;;1.90;;
8159;SDS011;27404;52.398;9.646;2022-11-06T15:57:54;3.73;;;1.90;;
8159;SDS011;27404;52.398;9.646;2022-11-06T16:00:50;3.90;;;1.50;;
8159;SDS011;27404;52.398;9.646;2022-11-06T16:03:16;3.30;;;1.70;;
8159;SDS011;27404;52.398;9.646;2022-11-06T16:05:43;4.00;;;1.50;;
8159;SDS011;27404;52.398;9.646;2022-11-06T16:08:11;5.23;;;1.80;;
8159;SDS011;27404;52.398;9.646;2022-11-06T16:10:38;5.37;;;1.80;;
8159;SDS011;27404;52.398;9.646;2022-11-06T16:13:05;4.57;;;1.47;;
8159;SDS011;27404;52.398;9.646;2022-11-06T16:18:17;4.03;;;1.80;;
8159;SDS011;27404;52.398;9.646;2022-11-06T16:23:48;3.57;;;1.83;;
8159;SDS011;27404;52.398;9.646;2022-11-06T16:28:59;3.90;;;1.80;;
8159;SDS011;27404;52.398;9.646;2022-11-06T16:31:27;3.80;;;1.70;;
8159;SDS011;27404;52.398;9.646;2022-11-06T16:33:58;4.57;;;1.97;;
8159;SDS011;27404;52.398;9.646;2022-11-06T16:36:26;2.97;;;1.40;;
8159;SDS011;27404;52.398;9.646;2022-11-06T16:38:53;3.43;;;1.73;;
8159;SDS011;27404;52.398;9.646;2022-11-06T16:44:25;4.03;;;1.37;;
8159;SDS011;27404;52.398;9.646;2022-11-06T16:49:40;5.17;;;1.57;;
8159;SDS011;27404;52.398;9.646;2022-11-06T16:57:18;3.97;;;1.50;;
8159;SDS011;27404;52.398;9.646;2022-11-06T16:59:53;2.70;;;1.50;;
8159;SDS011;27404;52.398;9.646;2022-11-06T17:02:41;4.87;;;2.00;;
8159;SDS011;27404;52.398;9.646;2022-11-06T17:05:29;2.40;;;1.40;;
8159;SDS011;27404;52.398;9.646;2022-11-06T17:10:47;3.00;;;1.60;;
8159;SDS011;27404;52.398;9.646;2022-11-06T17:13:15;3.63;;;1.50;;
8159;SDS011;27404;52.398;9.646;2022-11-06T17:15:46;3.47;;;1.47;;
8159;SDS011;27404;52.398;9.646;2022-11-06T17:18:17;5.10;;;1.70;;
8159;SDS011;27404;52.398;9.646;2022-11-06T17:20:46;2.13;;;1.47;;
8159;SDS011;27404;52.398;9.646;2022-11-06T17:23:14;2.90;;;1.50;;
8159;SDS011;27404;52.398;9.646;2022-11-06T17:25:40;2.60;;;1.20;;
8159;SDS011;27404;52.398;9.646;2022-11-06T17:28:07;3.87;;;1.67;;
8159;SDS011;27404;52.398;9.646;2022-11-06T17:30:33;2.93;;;1.53;;
8159;SDS011;27404;52.398;9.646;2022-11-06T17:32:59;4.00;;;1.77;;
8159;SDS011;27404;52.398;9.646;2022-11-06T17:35:24;2.73;;;1.53;;
8159;SDS011;27404;52.398;9.646;2022-11-06T17:37:50;2.90;;;1.80;;
8159;SDS011;27404;52.398;9.646;2022-11-06T17:40:15;2.83;;;1.60;;
8159;SDS011;27404;52.398;9.646;2022-11-06T17:42:41;4.63;;;1.93;;
8159;SDS011;27404;52.398;9.646;2022-11-06T17:45:06;4.13;;;2.20;;
8159;SDS011;27404;52.398;9.646;2022-11-06T17:47:32;3.00;;;1.70;;
8159;SDS011;27404;52.398;9.646;2022-11-06T17:49:57;2.73;;;1.87;;
8159;SDS011;27404;52.398;9.646;2022-11-06T17:52:23;5.97;;;2.90;;
8159;SDS011;27404;52.398;9.646;2022-11-06T17:54:48;4.50;;;2.37;;
8159;SDS011;27404;52.398;9.646;2022-11-06T17:57:14;4.87;;;2.10;;
8159;SDS011;27404;52.398;9.646;2022-11-06T17:59:40;3.90;;;2.20;;
8159;SDS011;27404;52.398;9.646;2022-11-06T18:02:06;4.67;;;2.23;;
8159;SDS011;27404;52.398;9.646;2022-11-06T18:04:31;4.03;;;2.33;;
8159;SDS011;27404;52.398;9.646;2022-11-06T18:06:59;5.83;;;2.47;;
8159;SDS011;27404;52.398;9.646;2022-11-06T18:09:25;4.60;;;2.23;;
8159;SDS011;27404;52.398;9.646;2022-11-06T18:11:51;4.67;;;2.60;;
8159;SDS011;27404;52.398;9.646;2022-11-06T18:14:18;3.90;;;2.60;;
8159;SDS011;27404;52.398;9.646;2022-11-06T18:16:45;3.80;;;2.07;;
8159;SDS011;27404;52.398;9.646;2022-11-06T18:19:12;5.60;;;2.23;;
8159;SDS011;27404;52.398;9.646;2022-11-06T18:21:41;4.83;;;2.50;;
8159;SDS011;27404;52.398;9.646;2022-11-06T18:24:08;3.67;;;2.40;;
8159;SDS011;27404;52.398;9.646;2022-11-06T18:26:33;3.80;;;2.40;;